Latest Coastal Weather Observations for Cape Bruny AWS

IDT60701

Issued at 3:15 pm EST Wednesday 3 September 2014 (issued every 10 minutes, with the page automatically refreshed every 10 minutes)

About coastal observations | Map of coastal stations | Coastal observations for TAS | Marine services | Other Formats
Station Details ID: 094198 Name: CAPE BRUNY (CAPE BRUNY) Lat: -43.49 Lon: 147.14 Height: 59.7 m
Data from the previous 72 hours. | See also: Recent months at Cape Bruny AWS
Date/Time
EST
Temp

°C
Wind Pressure Rain
since 9am
mm
Weather Cloud Vis
km
Sea
Height
m
Swell
Dir
 
Speed
knots
Gust
knots
hPa Trend Height
m
Period
s
Dir
03/03:00pm 12.9 SW 11 15 1018.3 - 1.2 - - - - - - -
03/02:30pm 12.4 SW 9 17 1018.4 - 1.2 - - - - - - -
03/02:00pm 11.3 SW 13 17 1018.5 - 1.2 - - - - - - -
03/01:30pm 12.3 SW 10 15 1018.6 - 1.2 - - - - - - -
03/01:00pm 12.7 SW 9 13 1018.8 - 1.2 - - - - - - -
03/12:30pm 12.9 WSW 10 13 1019.2 - 1.2 - - - - - - -
03/12:00pm 10.9 WSW 14 17 1019.5 - 1.2 Recent precip. - - - - - -
03/11:30am 10.4 WSW 12 17 1019.8 - 1.2 - - - - - - -
03/11:00am 9.2 WSW 12 20 1020.0 - 0.8 - - - - - - -
03/10:30am 12.1 WSW 14 18 1020.1 - 0.0 - - - - - - -
03/10:00am 11.3 W 15 19 1020.2 - 0.0 - - - - - - -
03/09:30am 11.2 W 13 17 1020.3 - 0.0 - - - - - - -
03/09:00am 10.5 W 8 11 1020.5 - 0.6 - - - - - - -
03/08:30am 10.3 W 8 11 1020.3 - 0.6 - - - - - - -
03/08:00am 9.7 W 9 11 1020.2 - 0.6 - - - - - - -
03/07:30am 9.1 WNW 8 10 1020.0 - 0.6 - - - - - - -
03/07:00am 8.5 WNW 8 11 1019.9 - 0.6 - - - - - - -
03/06:30am 8.6 WNW 8 11 1019.7 - 0.6 - - - - - - -
03/06:00am 8.2 WNW 9 13 1019.6 - 0.6 - - - - - - -
03/05:30am 8.3 WNW 9 12 1019.5 - 0.6 - - - - - - -
03/05:00am 7.9 WNW 9 12 1019.6 - 0.6 - - - - - - -
03/04:30am 7.7 WNW 9 11 1019.6 - 0.6 - - - - - - -
03/04:00am 7.3 NW 7 10 1019.6 - 0.6 - - - - - - -
03/03:30am 7.3 WNW 6 9 1019.5 - 0.6 - - - - - - -
03/03:00am 7.7 WNW 8 11 1019.7 - 0.6 - - - - - - -
03/02:30am 7.8 WNW 9 14 1019.9 - 0.6 - - - - - - -
03/02:00am 7.5 WNW 7 9 1020.1 - 0.6 - - - - - - -
03/01:30am 8.4 W 10 12 1020.4 - 0.6 - - - - - - -
03/01:00am 7.8 WNW 9 12 1020.4 - 0.6 - - - - - - -
03/12:30am 7.9 WNW 9 11 1020.3 - 0.6 - - - - - - -
03/12:00am 7.5 WNW 10 12 1020.4 - 0.6 - - - - - - -
 
Date/Time
EST
Temp

°C
Wind Pressure Rain
since 9am
mm
Weather Cloud Vis
km
Sea
Height
m
Swell
Dir
 
Speed
knots
Gust
knots
hPa Trend Height
m
Period
s
Dir
02/11:30pm 8.0 W 12 17 1020.4 - 0.6 - - - - - - -
02/11:00pm 8.3 W 13 17 1020.5 - 0.6 - - - - - - -
02/10:30pm 8.4 W 15 19 1020.5 - 0.6 - - - - - - -
02/10:00pm 8.7 W 16 21 1020.5 - 0.6 - - - - - - -
02/09:30pm 8.9 W 14 19 1020.5 - 0.6 - - - - - - -
02/09:00pm 8.6 W 16 18 1020.6 - 0.6 - - - - - - -
02/08:30pm 8.4 W 18 23 1020.6 - 0.6 - - - - - - -
02/08:00pm 8.4 W 15 19 1020.4 - 0.6 - - - - - - -
02/07:30pm 8.3 W 13 19 1020.2 - 0.6 - - - - - - -
02/07:00pm 8.9 W 15 18 1019.9 - 0.6 - - - - - - -
02/06:30pm 8.8 W 14 22 1019.8 - 0.6 - - - - - - -
02/06:00pm 8.9 W 17 22 1019.4 - 0.6 - - - - - - -
02/05:30pm 8.7 WSW 17 23 1019.1 - 0.6 - - - - - - -
02/05:00pm 9.1 WSW 16 22 1018.8 - 0.6 - - - - - - -
02/04:30pm 9.2 SW 16 26 1018.7 - 0.6 - - - - - - -
02/04:00pm 9.1 WSW 16 23 1018.4 - 0.6 - - - - - - -
02/03:30pm 9.3 WSW 15 21 1018.2 - 0.6 - - - - - - -
02/03:00pm 10.0 WSW 16 22 1018.0 - 0.6 Recent precip. - - - - - -
02/02:30pm 10.0 W 16 21 1017.9 - 0.4 - - - - - - -
02/02:00pm 8.6 WSW 13 18 1017.9 - 0.4 - - - - - - -
02/01:47pm 6.8 SW 25 31 1018.0 - 0.2 - - - - - - -
02/01:44pm 8.1 W 16 26 1018.0 - 0.2 - - - - - - -
02/01:30pm 8.1 WSW 16 24 1017.8 - 0.2 - - - - - - -
02/01:19pm 8.6 WSW 15 28 1017.7 - 0.0 - - - - - - -
02/01:00pm 10.7 WSW 14 18 1017.6 - 0.0 - - - - - - -
02/12:30pm 9.4 WSW 15 19 1017.8 - 0.0 - - - - - - -
02/12:00pm 9.0 SW 19 26 1018.1 - 0.0 - - - - - - -
02/11:30am 8.7 WSW 20 27 1017.9 - 0.0 - - - - - - -
02/11:03am 10.2 WSW 20 31 1017.7 - 0.0 - - - - - - -
02/11:00am 10.8 WSW 20 26 1017.6 - 0.0 - - - - - - -
02/10:30am 9.8 W 17 22 1017.4 - 0.0 - - - - - - -
02/10:00am 9.9 W 17 22 1017.3 - 0.0 - - - - - - -
02/09:30am 10.2 W 15 19 1017.2 - 0.0 - - - - - - -
02/09:00am 9.7 W 15 20 1017.1 - 12.0 - - - - - - -
02/08:30am 9.1 W 14 19 1016.9 - 12.0 - - - - - - -
02/08:00am 8.0 WNW 11 13 1016.8 - 12.0 - - - - - - -
02/07:30am 7.4 WNW 12 14 1016.5 - 12.0 - - - - - - -
02/07:00am 8.2 W 12 16 1016.1 - 12.0 - - - - - - -
02/06:30am 8.4 SW 9 13 1015.8 - 12.0 - - - - - - -
02/06:00am 8.2 SW 13 21 1015.5 - 12.0 - - - - - - -
02/05:30am 7.9 WSW 11 15 1015.0 - 12.0 - - - - - - -
02/05:00am 8.3 SW 13 18 1014.6 - 12.0 - - - - - - -
02/04:30am 8.6 SW 11 15 1014.3 - 12.0 - - - - - - -
02/04:00am 8.3 SW 14 17 1014.2 - 12.0 - - - - - - -
02/03:30am 8.6 SW 11 18 1013.9 - 12.0 - - - - - - -
02/03:00am 8.7 SW 11 19 1013.7 - 12.0 - - - - - - -
02/02:30am 8.9 SSW 10 16 1013.4 - 12.0 - - - - - - -
02/02:00am 8.9 SW 13 23 1013.2 - 12.0 - - - - - - -
02/01:30am 9.3 SW 12 19 1013.1 - 12.0 - - - - - - -
02/01:00am 9.1 S 12 18 1012.9 - 12.0 - - - - - - -
02/12:30am 9.1 SW 10 17 1012.5 - 12.0 - - - - - - -
02/12:00am 9.0 S 13 21 1012.4 - 12.0 - - - - - - -
 
Date/Time
EST
Temp

°C
Wind Pressure Rain
since 9am
mm
Weather Cloud Vis
km
Sea
Height
m
Swell
Dir
 
Speed
knots
Gust
knots
hPa Trend Height
m
Period
s
Dir
01/11:42pm 9.2 S 16 23 1012.0 - 12.0 - - - - - - -
01/11:30pm 8.9 SSW 9 13 1011.9 - 12.0 - - - - - - -
01/11:17pm 9.1 S 15 25 1011.7 - 12.0 - - - - - - -
01/11:00pm 9.4 S 13 20 1011.5 - 12.0 - - - - - - -
01/10:30pm 9.0 S 14 21 1011.4 - 12.0 - - - - - - -
01/10:00pm 8.5 S 13 19 1011.0 - 12.0 - - - - - - -
01/09:35pm 7.0 SSW 7 10 1010.8 - 11.8 - - - - - - -
01/09:30pm 6.9 S 20 35 1011.1 - 11.6 - - - - - - -
01/09:24pm 8.7 S 15 29 1010.6 - 10.8 - - - - - - -
01/09:00pm 9.0 SW 9 12 1010.1 - 10.8 - - - - - - -
01/08:30pm 8.5 S 6 9 1009.5 - 10.8 - - - - - - -
01/08:00pm 8.1 S 16 24 1009.4 - 10.8 - - - - - - -
01/07:40pm 9.5 S 15 27 1008.7 - 10.0 - - - - - - -
01/07:30pm 9.5 S 14 20 1008.5 - 10.0 - - - - - - -
01/07:00pm 9.5 S 14 20 1008.0 - 10.0 - - - - - - -
01/06:31pm 9.6 S 15 25 1007.7 - 10.0 - - - - - - -
01/06:30pm 9.5 S 16 25 1007.7 - 10.0 - - - - - - -
01/06:00pm 9.4 S 17 28 1007.2 - 9.8 - - - - - - -
01/05:38pm 9.4 S 16 27 1006.6 - 9.8 - - - - - - -
01/05:30pm 9.0 S 17 26 1006.5 - 9.8 - - - - - - -
01/05:03pm 9.1 S 16 26 1005.8 - 9.8 - - - - - - -
01/05:00pm 9.0 S 16 24 1005.8 - 9.8 - - - - - - -
01/04:32pm 9.3 S 16 26 1005.3 - 9.8 - - - - - - -
01/04:30pm 9.1 S 16 23 1005.3 - 9.8 - - - - - - -
01/04:13pm 9.2 S 16 26 1005.0 - 9.6 - - - - - - -
01/04:00pm 9.1 S 17 24 1004.6 - 9.6 - - - - - - -
01/03:39pm 9.3 S 17 27 1004.4 - 9.4 - - - - - - -
01/03:30pm 9.2 S 17 25 1004.1 - 9.4 - - - - - - -
01/03:00pm 9.0 SW 15 26 1004.0 - 9.2 Recent precip. - - - - - -
01/02:30pm 9.3 SW 15 25 1003.6 - 8.8 - - - - - - -
01/02:07pm 9.4 SW 16 26 1003.3 - 8.4 - - - - - - -
01/02:00pm 9.2 SW 19 26 1003.2 - 8.2 - - - - - - -
01/01:31pm 9.2 SW 15 25 1003.2 - 7.6 - - - - - - -
01/01:30pm 9.1 SW 16 25 1003.2 - 7.6 - - - - - - -
01/01:21pm 9.2 SW 15 25 1003.0 - 7.2 - - - - - - -
01/01:00pm 9.5 SSW 14 24 1002.8 - 6.6 - - - - - - -
01/12:43pm 9.3 SSW 15 28 1002.6 - 6.6 - - - - - - -
01/12:30pm 9.7 SW 13 22 1002.6 - 6.4 - - - - - - -
01/12:00pm 10.0 SW 20 26 1002.5 - 6.0 Rain - - - - - -
01/11:46am 10.0 SW 21 27 1002.3 - 5.4 - - - - - - -
01/11:30am 10.4 SW 10 17 1002.2 - 4.2 - - - - - - -
01/11:00am 10.5 SW 5 10 1002.1 - 1.8 - - - - - - -
01/10:30am 10.9 WSW 8 11 1002.2 - 1.0 - - - - - - -
01/10:00am 10.9 SW 12 15 1002.3 - 0.6 - - - - - - -
01/09:30am 11.0 SSW 7 10 1002.5 - 0.4 - - - - - - -
01/09:00am 11.7 SSW 6 10 1002.8 - 0.2 Rain - - - - - -
01/08:30am 12.8 SE 1 6 1002.7 - 0.0 - - - - - - -
01/08:00am 12.7 SSW 3 4 1002.7 - 0.0 - - - - - - -
01/07:30am 12.7 NW 4 5 1003.0 - 0.0 - - - - - - -
01/07:00am 12.6 N 5 8 1003.1 - 0.0 - - - - - - -
01/06:30am 12.4 N 3 5 1002.9 - 0.0 - - - - - - -
01/06:00am 12.8 NW 4 6 1003.1 - 0.0 - - - - - - -
01/05:30am 13.1 N 8 10 1003.2 - 0.0 - - - - - - -
01/05:00am 13.4 N 8 11 1003.1 - 0.0 - - - - - - -
01/04:30am 13.7 N 9 13 1003.0 - 0.0 - - - - - - -
01/04:00am 13.3 NNE 8 13 1002.9 - 0.0 - - - - - - -
01/03:30am 13.4 NNE 6 10 1003.0 - 0.0 - - - - - - -
01/03:00am 13.4 NNE 7 11 1003.5 - 0.0 - - - - - - -
01/02:30am 13.6 NNE 7 11 1004.0 - 0.0 - - - - - - -
01/02:00am 14.1 NNE 7 11 1004.6 - 0.0 - - - - - - -
01/01:30am 14.2 NNE 7 11 1005.0 - 0.0 - - - - - - -
01/01:00am 14.5 N 6 10 1005.4 - 0.0 - - - - - - -
01/12:30am 14.7 N 8 13 1005.7 - 0.0 - - - - - - -
01/12:00am 14.2 N 8 11 1006.2 - 0.0 - - - - - - -
 
Date/Time
EST
Temp

°C
Wind Pressure Rain
since 9am
mm
Weather Cloud Vis
km
Sea
Height
m
Swell
Dir
 
Speed
knots
Gust
knots
hPa Trend Height
m
Period
s
Dir
31/11:30pm 14.4 N 8 13 1006.4 - 0.0 - - - - - - -
31/11:00pm 14.4 N 9 13 1007.0 - 0.0 - - - - - - -
31/10:30pm 14.2 N 9 14 1007.4 - 0.0 - - - - - - -
31/10:00pm 14.3 N 8 11 1007.6 - 0.0 - - - - - - -
31/09:30pm 14.7 N 9 13 1007.9 - 0.0 - - - - - - -
31/09:00pm 14.8 N 11 14 1007.9 - 0.0 - - - - - - -
31/08:30pm 14.7 N 10 14 1008.0 - 0.0 - - - - - - -
31/08:00pm 14.8 N 10 16 1008.2 - 0.0 - - - - - - -
31/07:30pm 14.8 NNE 7 12 1008.6 - 0.0 - - - - - - -
31/07:00pm 14.9 NNE 8 13 1008.8 - 0.0 - - - - - - -
31/06:30pm 15.1 NNE 7 11 1008.9 - 0.0 - - - - - - -
31/06:00pm 15.2 NNE 9 11 1008.9 - 0.0 - - - - - - -
31/05:30pm 15.6 NNE 9 12 1009.0 - 0.0 - - - - - - -
31/05:00pm 15.4 NE 8 12 1009.1 - 0.0 - - - - - - -
31/04:30pm 15.5 NE 7 9 1009.3 - 0.0 - - - - - - -
31/04:00pm 15.9 NNE 6 8 1009.7 - 0.0 - - - - - - -
31/03:30pm 16.5 N 7 10 1010.0 - 0.0 - - - - - - -

Other Formats:

Comma delimited format used in spreadsheet applications
http://www.bom.gov.au/fwo/IDT60701/IDT60701.95967.axf

JavaScript Object Notation format (JSON) in row-major order
http://www.bom.gov.au/fwo/IDT60701/IDT60701.95967.json